sensor_id;sensor_type;location;lat;lon;timestamp;pressure;altitude;pressure_sealevel;temperature;humidity
13422;BME280;6782;55.904;13.396;2022-09-21T00:00:17;67132.22;;;8.62;100.00
13422;BME280;6782;55.904;13.396;2022-09-21T00:03:04;67126.63;;;8.57;100.00
13422;BME280;6782;55.904;13.396;2022-09-21T00:05:51;67120.75;;;8.52;100.00
13422;BME280;6782;55.904;13.396;2022-09-21T00:08:38;67113.34;;;8.46;100.00
13422;BME280;6782;55.904;13.396;2022-09-21T00:11:28;67105.09;;;8.38;100.00
13422;BME280;6782;55.904;13.396;2022-09-21T00:14:16;67097.69;;;8.32;100.00
13422;BME280;6782;55.904;13.396;2022-09-21T00:17:05;67090.13;;;8.26;100.00
13422;BME280;6782;55.904;13.396;2022-09-21T00:19:54;67080.94;;;8.18;100.00
13422;BME280;6782;55.904;13.396;2022-09-21T00:22:41;67071.03;;;8.09;100.00
13422;BME280;6782;55.904;13.396;2022-09-21T00:25:28;67064.25;;;8.04;100.00
13422;BME280;6782;55.904;13.396;2022-09-21T00:28:15;67056.38;;;7.97;100.00
13422;BME280;6782;55.904;13.396;2022-09-21T00:31:03;67049.88;;;7.92;100.00
13422;BME280;6782;55.904;13.396;2022-09-21T00:33:53;67043.97;;;7.86;100.00
13422;BME280;6782;55.904;13.396;2022-09-21T00:36:40;67037.78;;;7.81;100.00
13422;BME280;6782;55.904;13.396;2022-09-21T00:39:27;67031.41;;;7.76;100.00
13422;BME280;6782;55.904;13.396;2022-09-21T00:42:16;67026.09;;;7.71;100.00
13422;BME280;6782;55.904;13.396;2022-09-21T00:45:05;67018.38;;;7.65;100.00
13422;BME280;6782;55.904;13.396;2022-09-21T00:47:52;67010.69;;;7.58;100.00
13422;BME280;6782;55.904;13.396;2022-09-21T00:50:45;67002.41;;;7.51;100.00
13422;BME280;6782;55.904;13.396;2022-09-21T00:53:36;66993.50;;;7.44;100.00
13422;BME280;6782;55.904;13.396;2022-09-21T00:56:24;66985.25;;;7.37;100.00
13422;BME280;6782;55.904;13.396;2022-09-21T00:59:14;66979.19;;;7.32;100.00
13422;BME280;6782;55.904;13.396;2022-09-21T01:02:03;66973.56;;;7.27;100.00
13422;BME280;6782;55.904;13.396;2022-09-21T01:04:51;66968.84;;;7.23;100.00
13422;BME280;6782;55.904;13.396;2022-09-21T01:07:43;66964.13;;;7.19;100.00
13422;BME280;6782;55.904;13.396;2022-09-21T01:10:44;66959.69;;;7.15;100.00
13422;BME280;6782;55.904;13.396;2022-09-21T01:13:38;66955.22;;;7.11;100.00
13422;BME280;6782;55.904;13.396;2022-09-21T01:16:34;66951.41;;;7.08;100.00
13422;BME280;6782;55.904;13.396;2022-09-21T01:19:40;66946.38;;;7.04;100.00
13422;BME280;6782;55.904;13.396;2022-09-21T01:22:45;66941.06;;;6.99;100.00
13422;BME280;6782;55.904;13.396;2022-09-21T01:25:41;66936.06;;;6.94;100.00
13422;BME280;6782;55.904;13.396;2022-09-21T01:28:52;66930.47;;;6.90;100.00
13422;BME280;6782;55.904;13.396;2022-09-21T01:31:46;66926.03;;;6.86;100.00
13422;BME280;6782;55.904;13.396;2022-09-21T01:34:37;66921.16;;;6.82;100.00
13422;BME280;6782;55.904;13.396;2022-09-21T01:37:31;66915.56;;;6.77;100.00
13422;BME280;6782;55.904;13.396;2022-09-21T01:40:24;66909.66;;;6.72;100.00
13422;BME280;6782;55.904;13.396;2022-09-21T01:43:17;66904.81;;;6.68;100.00
13422;BME280;6782;55.904;13.396;2022-09-21T01:46:12;66900.06;;;6.63;100.00
13422;BME280;6782;55.904;13.396;2022-09-21T01:49:05;66895.91;;;6.60;100.00
13422;BME280;6782;55.904;13.396;2022-09-21T01:51:56;66888.84;;;6.54;100.00
13422;BME280;6782;55.904;13.396;2022-09-21T01:54:50;66882.06;;;6.48;100.00
13422;BME280;6782;55.904;13.396;2022-09-21T01:57:43;66874.53;;;6.42;100.00
13422;BME280;6782;55.904;13.396;2022-09-21T02:00:34;66869.53;;;6.37;100.00
13422;BME280;6782;55.904;13.396;2022-09-21T02:03:26;66865.41;;;6.34;100.00
13422;BME280;6782;55.904;13.396;2022-09-21T02:06:17;66861.72;;;6.30;100.00
13422;BME280;6782;55.904;13.396;2022-09-21T02:09:04;66857.88;;;6.27;100.00
13422;BME280;6782;55.904;13.396;2022-09-21T02:11:52;66854.63;;;6.24;100.00
13422;BME280;6782;55.904;13.396;2022-09-21T02:14:39;66851.97;;;6.22;100.00
13422;BME280;6782;55.904;13.396;2022-09-21T02:17:33;66848.84;;;6.20;100.00
13422;BME280;6782;55.904;13.396;2022-09-21T02:20:29;66845.91;;;6.17;100.00
13422;BME280;6782;55.904;13.396;2022-09-21T02:23:22;66844.50;;;6.15;100.00
13422;BME280;6782;55.904;13.396;2022-09-21T02:26:13;66840.22;;;6.12;100.00
13422;BME280;6782;55.904;13.396;2022-09-21T02:29:07;66836.28;;;6.08;100.00
13422;BME280;6782;55.904;13.396;2022-09-21T02:32:00;66831.38;;;6.04;100.00
13422;BME280;6782;55.904;13.396;2022-09-21T02:34:52;66826.63;;;6.00;100.00
13422;BME280;6782;55.904;13.396;2022-09-21T02:37:47;66818.50;;;5.93;100.00
13422;BME280;6782;55.904;13.396;2022-09-21T02:40:44;66810.06;;;5.86;100.00
13422;BME280;6782;55.904;13.396;2022-09-21T02:43:38;66803.84;;;5.81;100.00
13422;BME280;6782;55.904;13.396;2022-09-21T02:46:31;66797.97;;;5.76;100.00
13422;BME280;6782;55.904;13.396;2022-09-21T02:49:25;66791.31;;;5.70;100.00
13422;BME280;6782;55.904;13.396;2022-09-21T02:52:16;66784.56;;;5.64;100.00
13422;BME280;6782;55.904;13.396;2022-09-21T02:55:07;66778.19;;;5.59;100.00
13422;BME280;6782;55.904;13.396;2022-09-21T02:57:55;66773.25;;;5.54;100.00
13422;BME280;6782;55.904;13.396;2022-09-21T03:00:43;66767.75;;;5.50;100.00
13422;BME280;6782;55.904;13.396;2022-09-21T03:03:31;66762.88;;;5.46;100.00
13422;BME280;6782;55.904;13.396;2022-09-21T03:06:19;66759.94;;;5.43;100.00
13422;BME280;6782;55.904;13.396;2022-09-21T03:09:06;66757.41;;;5.41;100.00
13422;BME280;6782;55.904;13.396;2022-09-21T03:11:56;66755.66;;;5.39;100.00
13422;BME280;6782;55.904;13.396;2022-09-21T03:14:43;66753.31;;;5.37;100.00
13422;BME280;6782;55.904;13.396;2022-09-21T03:17:31;66749.91;;;5.34;100.00
13422;BME280;6782;55.904;13.396;2022-09-21T03:20:18;66747.13;;;5.32;100.00
13422;BME280;6782;55.904;13.396;2022-09-21T03:23:06;66744.06;;;5.29;100.00
13422;BME280;6782;55.904;13.396;2022-09-21T03:25:54;66740.53;;;5.26;100.00
13422;BME280;6782;55.904;13.396;2022-09-21T03:28:43;66736.53;;;5.23;100.00
13422;BME280;6782;55.904;13.396;2022-09-21T03:31:31;66732.56;;;5.19;100.00
13422;BME280;6782;55.904;13.396;2022-09-21T03:34:19;66728.88;;;5.16;100.00
13422;BME280;6782;55.904;13.396;2022-09-21T03:37:07;66726.03;;;5.14;100.00
13422;BME280;6782;55.904;13.396;2022-09-21T03:39:55;66723.69;;;5.12;100.00
13422;BME280;6782;55.904;13.396;2022-09-21T03:42:43;66721.47;;;5.10;100.00
13422;BME280;6782;55.904;13.396;2022-09-21T03:45:33;66718.06;;;5.07;100.00
13422;BME280;6782;55.904;13.396;2022-09-21T03:48:20;66716.13;;;5.06;100.00
13422;BME280;6782;55.904;13.396;2022-09-21T03:51:07;66715.13;;;5.05;100.00
13422;BME280;6782;55.904;13.396;2022-09-21T03:53:55;66712.91;;;5.03;100.00
13422;BME280;6782;55.904;13.396;2022-09-21T03:56:43;66707.88;;;4.99;100.00
13422;BME280;6782;55.904;13.396;2022-09-21T03:59:31;66702.69;;;4.94;100.00
13422;BME280;6782;55.904;13.396;2022-09-21T04:02:21;66698.72;;;4.91;100.00
13422;BME280;6782;55.904;13.396;2022-09-21T04:05:10;66694.63;;;4.87;100.00
13422;BME280;6782;55.904;13.396;2022-09-21T04:07:59;66690.03;;;4.83;100.00
13422;BME280;6782;55.904;13.396;2022-09-21T04:10:47;66685.78;;;4.80;100.00
13422;BME280;6782;55.904;13.396;2022-09-21T04:13:35;66682.38;;;4.77;100.00
13422;BME280;6782;55.904;13.396;2022-09-21T04:16:23;66679.16;;;4.74;100.00
13422;BME280;6782;55.904;13.396;2022-09-21T04:19:12;66677.25;;;4.72;100.00
13422;BME280;6782;55.904;13.396;2022-09-21T04:21:59;66674.34;;;4.69;100.00
13422;BME280;6782;55.904;13.396;2022-09-21T04:24:47;66671.53;;;4.67;100.00
13422;BME280;6782;55.904;13.396;2022-09-21T04:27:34;66669.28;;;4.65;100.00
13422;BME280;6782;55.904;13.396;2022-09-21T04:30:22;66667.81;;;4.64;100.00
13422;BME280;6782;55.904;13.396;2022-09-21T04:33:09;66666.34;;;4.63;100.00
13422;BME280;6782;55.904;13.396;2022-09-21T04:35:59;66665.47;;;4.62;100.00
13422;BME280;6782;55.904;13.396;2022-09-21T04:38:47;66665.88;;;4.63;100.00
13422;BME280;6782;55.904;13.396;2022-09-21T04:41:35;66666.59;;;4.63;100.00
13422;BME280;6782;55.904;13.396;2022-09-21T04:44:23;66667.38;;;4.64;100.00
13422;BME280;6782;55.904;13.396;2022-09-21T04:47:10;66666.91;;;4.64;100.00
13422;BME280;6782;55.904;13.396;2022-09-21T04:49:58;66664.88;;;4.62;100.00
13422;BME280;6782;55.904;13.396;2022-09-21T04:52:47;66661.63;;;4.59;100.00
13422;BME280;6782;55.904;13.396;2022-09-21T04:55:34;66659.44;;;4.57;100.00
13422;BME280;6782;55.904;13.396;2022-09-21T04:58:22;66660.16;;;4.57;100.00
13422;BME280;6782;55.904;13.396;2022-09-21T05:01:10;66656.34;;;4.54;100.00
13422;BME280;6782;55.904;13.396;2022-09-21T05:03:58;66653.50;;;4.52;100.00
13422;BME280;6782;55.904;13.396;2022-09-21T05:06:47;66651.31;;;4.50;100.00
13422;BME280;6782;55.904;13.396;2022-09-21T05:09:36;66650.31;;;4.49;100.00
13422;BME280;6782;55.904;13.396;2022-09-21T05:12:41;66650.59;;;4.49;100.00
13422;BME280;6782;55.904;13.396;2022-09-21T05:15:28;66651.59;;;4.50;100.00
13422;BME280;6782;55.904;13.396;2022-09-21T05:18:16;66652.06;;;4.51;100.00
13422;BME280;6782;55.904;13.396;2022-09-21T05:21:04;66653.13;;;4.51;100.00
13422;BME280;6782;55.904;13.396;2022-09-21T05:23:52;66654.56;;;4.53;100.00
13422;BME280;6782;55.904;13.396;2022-09-21T05:26:42;66656.22;;;4.54;100.00
13422;BME280;6782;55.904;13.396;2022-09-21T05:29:29;66657.84;;;4.55;100.00
13422;BME280;6782;55.904;13.396;2022-09-21T05:32:20;66660.13;;;4.57;100.00
13422;BME280;6782;55.904;13.396;2022-09-21T05:35:17;66662.91;;;4.59;100.00
13422;BME280;6782;55.904;13.396;2022-09-21T05:38:12;66664.94;;;4.61;100.00
13422;BME280;6782;55.904;13.396;2022-09-21T05:41:01;66668.66;;;4.64;100.00
13422;BME280;6782;55.904;13.396;2022-09-21T05:43:51;66673.06;;;4.68;100.00
13422;BME280;6782;55.904;13.396;2022-09-21T05:46:40;66677.94;;;4.72;100.00
13422;BME280;6782;55.904;13.396;2022-09-21T05:49:39;66683.38;;;4.77;100.00
13422;BME280;6782;55.904;13.396;2022-09-21T05:52:37;66689.59;;;4.82;100.00
13422;BME280;6782;55.904;13.396;2022-09-21T05:55:34;66695.78;;;4.87;100.00
13422;BME280;6782;55.904;13.396;2022-09-21T05:58:32;66701.81;;;4.92;100.00
13422;BME280;6782;55.904;13.396;2022-09-21T06:01:33;66707.25;;;4.97;100.00
13422;BME280;6782;55.904;13.396;2022-09-21T06:04:25;66713.28;;;5.02;100.00
13422;BME280;6782;55.904;13.396;2022-09-21T06:07:12;66719.66;;;5.07;100.00
13422;BME280;6782;55.904;13.396;2022-09-21T06:09:59;66725.38;;;5.13;100.00
13422;BME280;6782;55.904;13.396;2022-09-21T06:12:47;66731.44;;;5.18;100.00
13422;BME280;6782;55.904;13.396;2022-09-21T06:15:35;66736.00;;;5.22;100.00
13422;BME280;6782;55.904;13.396;2022-09-21T06:18:25;66741.75;;;5.26;100.00
13422;BME280;6782;55.904;13.396;2022-09-21T06:21:12;66748.09;;;5.32;100.00
13422;BME280;6782;55.904;13.396;2022-09-21T06:24:00;66753.84;;;5.37;100.00
13422;BME280;6782;55.904;13.396;2022-09-21T06:26:48;66761.41;;;5.43;100.00
13422;BME280;6782;55.904;13.396;2022-09-21T06:29:35;66768.50;;;5.49;100.00
13422;BME280;6782;55.904;13.396;2022-09-21T06:32:22;66776.34;;;5.55;100.00
13422;BME280;6782;55.904;13.396;2022-09-21T06:35:12;66783.44;;;5.61;100.00
13422;BME280;6782;55.904;13.396;2022-09-21T06:38:01;66790.06;;;5.67;100.00
13422;BME280;6782;55.904;13.396;2022-09-21T06:40:50;66796.88;;;5.73;100.00
13422;BME280;6782;55.904;13.396;2022-09-21T06:43:38;66803.81;;;5.78;100.00
13422;BME280;6782;55.904;13.396;2022-09-21T06:46:25;66811.22;;;5.85;100.00
13422;BME280;6782;55.904;13.396;2022-09-21T06:49:12;66819.22;;;5.91;100.00
13422;BME280;6782;55.904;13.396;2022-09-21T06:52:01;66827.78;;;5.98;100.00
13422;BME280;6782;55.904;13.396;2022-09-21T06:54:49;66837.56;;;6.06;100.00
13422;BME280;6782;55.904;13.396;2022-09-21T06:57:36;66846.09;;;6.14;100.00
13422;BME280;6782;55.904;13.396;2022-09-21T07:00:23;66856.47;;;6.22;100.00
13422;BME280;6782;55.904;13.396;2022-09-21T07:03:11;66867.97;;;6.32;100.00
13422;BME280;6782;55.904;13.396;2022-09-21T07:05:59;66880.34;;;6.43;100.00
13422;BME280;6782;55.904;13.396;2022-09-21T07:08:50;66893.78;;;6.55;100.00
13422;BME280;6782;55.904;13.396;2022-09-21T07:11:38;66908.13;;;6.67;100.00
13422;BME280;6782;55.904;13.396;2022-09-21T07:14:26;66921.00;;;6.78;100.00
13422;BME280;6782;55.904;13.396;2022-09-21T07:17:14;66934.88;;;6.89;100.00
13422;BME280;6782;55.904;13.396;2022-09-21T07:20:03;66947.84;;;7.01;100.00
13422;BME280;6782;55.904;13.396;2022-09-21T07:22:50;66961.41;;;7.13;100.00
13422;BME280;6782;55.904;13.396;2022-09-21T07:25:39;66975.03;;;7.24;100.00
13422;BME280;6782;55.904;13.396;2022-09-21T07:28:26;66988.63;;;7.36;100.00
13422;BME280;6782;55.904;13.396;2022-09-21T07:31:15;67001.97;;;7.47;100.00
13422;BME280;6782;55.904;13.396;2022-09-21T07:34:03;67014.13;;;7.57;100.00
13422;BME280;6782;55.904;13.396;2022-09-21T07:36:50;67025.63;;;7.67;100.00
13422;BME280;6782;55.904;13.396;2022-09-21T07:39:38;67038.69;;;7.77;100.00
13422;BME280;6782;55.904;13.396;2022-09-21T07:42:27;67050.81;;;7.88;100.00
13422;BME280;6782;55.904;13.396;2022-09-21T07:45:15;67062.97;;;7.98;100.00
13422;BME280;6782;55.904;13.396;2022-09-21T07:48:03;67074.75;;;8.08;100.00
13422;BME280;6782;55.904;13.396;2022-09-21T07:50:50;67085.56;;;8.17;100.00
13422;BME280;6782;55.904;13.396;2022-09-21T07:53:39;67094.75;;;8.25;100.00
13422;BME280;6782;55.904;13.396;2022-09-21T07:56:27;67105.59;;;8.34;100.00
13422;BME280;6782;55.904;13.396;2022-09-21T07:59:16;67115.47;;;8.43;100.00
13422;BME280;6782;55.904;13.396;2022-09-21T08:02:02;67126.91;;;8.52;100.00
13422;BME280;6782;55.904;13.396;2022-09-21T08:04:49;67139.34;;;8.63;100.00
13422;BME280;6782;55.904;13.396;2022-09-21T08:07:38;67150.00;;;8.72;100.00
13422;BME280;6782;55.904;13.396;2022-09-21T08:10:25;67159.78;;;8.80;100.00
13422;BME280;6782;55.904;13.396;2022-09-21T08:13:14;67170.00;;;8.89;100.00
13422;BME280;6782;55.904;13.396;2022-09-21T08:16:04;67182.19;;;8.99;100.00
13422;BME280;6782;55.904;13.396;2022-09-21T08:18:51;67194.44;;;9.09;100.00
13422;BME280;6782;55.904;13.396;2022-09-21T08:21:39;67204.81;;;9.18;100.00
13422;BME280;6782;55.904;13.396;2022-09-21T08:24:26;67215.59;;;9.27;100.00
13422;BME280;6782;55.904;13.396;2022-09-21T08:27:14;67225.94;;;9.36;100.00
13422;BME280;6782;55.904;13.396;2022-09-21T08:30:01;67238.81;;;9.48;100.00
13422;BME280;6782;55.904;13.396;2022-09-21T08:32:53;67250.94;;;9.58;100.00
13422;BME280;6782;55.904;13.396;2022-09-21T08:35:40;67263.44;;;9.68;100.00
13422;BME280;6782;55.904;13.396;2022-09-21T08:38:31;67275.41;;;9.78;100.00
13422;BME280;6782;55.904;13.396;2022-09-21T08:41:22;67289.34;;;9.90;100.00
13422;BME280;6782;55.904;13.396;2022-09-21T08:44:13;67301.69;;;10.01;100.00
13422;BME280;6782;55.904;13.396;2022-09-21T08:47:04;67315.03;;;10.12;100.00
13422;BME280;6782;55.904;13.396;2022-09-21T08:49:57;67328.97;;;10.24;100.00
13422;BME280;6782;55.904;13.396;2022-09-21T08:52:46;67343.50;;;10.36;100.00
13422;BME280;6782;55.904;13.396;2022-09-21T08:55:33;67356.38;;;10.47;100.00
13422;BME280;6782;55.904;13.396;2022-09-21T08:58:22;67370.50;;;10.59;100.00
13422;BME280;6782;55.904;13.396;2022-09-21T09:01:27;67384.28;;;10.71;100.00
13422;BME280;6782;55.904;13.396;2022-09-21T09:04:26;67397.03;;;10.82;100.00
13422;BME280;6782;55.904;13.396;2022-09-21T09:07:28;67408.44;;;10.91;100.00
13422;BME280;6782;55.904;13.396;2022-09-21T09:10:29;67420.94;;;11.02;100.00
13422;BME280;6782;55.904;13.396;2022-09-21T09:13:31;67432.38;;;11.12;100.00
13422;BME280;6782;55.904;13.396;2022-09-21T09:16:28;67443.78;;;11.21;100.00
13422;BME280;6782;55.904;13.396;2022-09-21T09:19:23;67456.97;;;11.33;100.00
13422;BME280;6782;55.904;13.396;2022-09-21T09:22:18;67468.72;;;11.43;100.00
13422;BME280;6782;55.904;13.396;2022-09-21T09:25:16;67481.06;;;11.53;100.00
13422;BME280;6782;55.904;13.396;2022-09-21T09:28:16;67493.28;;;11.63;100.00
13422;BME280;6782;55.904;13.396;2022-09-21T09:31:13;67506.16;;;11.74;100.00
13422;BME280;6782;55.904;13.396;2022-09-21T09:34:09;67519.25;;;11.85;100.00
13422;BME280;6782;55.904;13.396;2022-09-21T09:37:13;67531.16;;;11.95;100.00
13422;BME280;6782;55.904;13.396;2022-09-21T09:40:01;67542.63;;;12.04;100.00
13422;BME280;6782;55.904;13.396;2022-09-21T09:42:54;67556.16;;;12.16;100.00
13422;BME280;6782;55.904;13.396;2022-09-21T09:45:55;67567.41;;;12.25;100.00
13422;BME280;6782;55.904;13.396;2022-09-21T09:49:01;67578.25;;;12.35;100.00
13422;BME280;6782;55.904;13.396;2022-09-21T09:51:51;67590.31;;;12.45;100.00
13422;BME280;6782;55.904;13.396;2022-09-21T09:54:39;67601.91;;;12.54;100.00
13422;BME280;6782;55.904;13.396;2022-09-21T09:57:28;67610.38;;;12.62;100.00
13422;BME280;6782;55.904;13.396;2022-09-21T10:00:19;67619.13;;;12.69;100.00
13422;BME280;6782;55.904;13.396;2022-09-21T10:03:15;67631.19;;;12.79;100.00
13422;BME280;6782;55.904;13.396;2022-09-21T10:06:03;67644.16;;;12.90;99.29
13422;BME280;6782;55.904;13.396;2022-09-21T10:08:50;67656.97;;;13.01;98.03
13422;BME280;6782;55.904;13.396;2022-09-21T10:11:39;67665.03;;;13.07;96.25
13422;BME280;6782;55.904;13.396;2022-09-21T10:14:32;67675.91;;;13.16;96.76
13422;BME280;6782;55.904;13.396;2022-09-21T10:17:24;67685.22;;;13.25;95.77
13422;BME280;6782;55.904;13.396;2022-09-21T10:20:14;67694.28;;;13.33;92.96
13422;BME280;6782;55.904;13.396;2022-09-21T10:23:03;67704.25;;;13.41;92.90
13422;BME280;6782;55.904;13.396;2022-09-21T10:25:56;67711.69;;;13.47;90.85
13422;BME280;6782;55.904;13.396;2022-09-21T10:28:56;67721.06;;;13.55;90.35
13422;BME280;6782;55.904;13.396;2022-09-21T10:31:53;67729.53;;;13.62;89.10
13422;BME280;6782;55.904;13.396;2022-09-21T10:35:01;67740.13;;;13.71;89.33
13422;BME280;6782;55.904;13.396;2022-09-21T10:38:09;67751.16;;;13.80;87.97
13422;BME280;6782;55.904;13.396;2022-09-21T10:40:57;67763.50;;;13.91;87.80
13422;BME280;6782;55.904;13.396;2022-09-21T10:43:47;67771.44;;;13.97;87.66
13422;BME280;6782;55.904;13.396;2022-09-21T10:46:36;67782.00;;;14.06;88.95
13422;BME280;6782;55.904;13.396;2022-09-21T10:49:26;67793.75;;;14.16;87.24
13422;BME280;6782;55.904;13.396;2022-09-21T10:52:16;67804.59;;;14.25;85.42
13422;BME280;6782;55.904;13.396;2022-09-21T10:55:13;67814.75;;;14.34;83.40
13422;BME280;6782;55.904;13.396;2022-09-21T10:58:01;67827.44;;;14.45;82.30
13422;BME280;6782;55.904;13.396;2022-09-21T11:00:51;67839.97;;;14.55;81.67
13422;BME280;6782;55.904;13.396;2022-09-21T11:03:46;67848.31;;;14.62;79.79
13422;BME280;6782;55.904;13.396;2022-09-21T11:06:40;67856.38;;;14.68;79.93
13422;BME280;6782;55.904;13.396;2022-09-21T11:09:37;67860.56;;;14.72;80.23
13422;BME280;6782;55.904;13.396;2022-09-21T11:12:35;67860.88;;;14.72;81.77
13422;BME280;6782;55.904;13.396;2022-09-21T11:15:45;67860.09;;;14.71;83.45
13422;BME280;6782;55.904;13.396;2022-09-21T11:18:42;67861.75;;;14.73;83.18
13422;BME280;6782;55.904;13.396;2022-09-21T11:21:37;67865.56;;;14.77;82.50
13422;BME280;6782;55.904;13.396;2022-09-21T11:24:34;67872.88;;;14.83;77.08
13422;BME280;6782;55.904;13.396;2022-09-21T11:27:26;67878.22;;;14.87;72.52
13422;BME280;6782;55.904;13.396;2022-09-21T11:30:17;67882.25;;;14.91;69.82
13422;BME280;6782;55.904;13.396;2022-09-21T11:33:14;67883.13;;;14.92;70.31
13422;BME280;6782;55.904;13.396;2022-09-21T11:36:12;67886.41;;;14.94;71.53
13422;BME280;6782;55.904;13.396;2022-09-21T11:39:12;67888.50;;;14.96;71.49
13422;BME280;6782;55.904;13.396;2022-09-21T11:42:18;67892.81;;;15.00;71.91
13422;BME280;6782;55.904;13.396;2022-09-21T11:45:23;67899.97;;;15.06;73.40
13422;BME280;6782;55.904;13.396;2022-09-21T11:48:22;67909.50;;;15.14;73.78
13422;BME280;6782;55.904;13.396;2022-09-21T11:51:31;67921.00;;;15.23;73.46
13422;BME280;6782;55.904;13.396;2022-09-21T11:54:50;67929.78;;;15.31;72.22
13422;BME280;6782;55.904;13.396;2022-09-21T11:57:47;67935.69;;;15.36;70.86
13422;BME280;6782;55.904;13.396;2022-09-21T12:00:46;67945.28;;;15.44;70.69
13422;BME280;6782;55.904;13.396;2022-09-21T12:04:01;67957.84;;;15.54;69.68
13422;BME280;6782;55.904;13.396;2022-09-21T12:07:00;67968.25;;;15.63;68.68
13422;BME280;6782;55.904;13.396;2022-09-21T12:10:11;67976.44;;;15.71;68.13
13422;BME280;6782;55.904;13.396;2022-09-21T12:13:09;67978.66;;;15.73;69.06
13422;BME280;6782;55.904;13.396;2022-09-21T12:16:05;67985.09;;;15.78;70.03
13422;BME280;6782;55.904;13.396;2022-09-21T12:19:02;67989.72;;;15.82;69.39
13422;BME280;6782;55.904;13.396;2022-09-21T12:21:55;67994.31;;;15.86;69.84
13422;BME280;6782;55.904;13.396;2022-09-21T12:24:49;68000.72;;;15.91;70.02
13422;BME280;6782;55.904;13.396;2022-09-21T12:27:39;68004.72;;;15.95;68.43
13422;BME280;6782;55.904;13.396;2022-09-21T12:30:31;68007.28;;;15.97;68.16
13422;BME280;6782;55.904;13.396;2022-09-21T12:33:22;68008.00;;;15.97;67.52
13422;BME280;6782;55.904;13.396;2022-09-21T12:36:17;68009.97;;;15.99;69.37
13422;BME280;6782;55.904;13.396;2022-09-21T12:39:12;68012.06;;;16.01;68.28
13422;BME280;6782;55.904;13.396;2022-09-21T12:42:03;68020.50;;;16.08;69.13
13422;BME280;6782;55.904;13.396;2022-09-21T12:44:54;68032.56;;;16.19;68.70
13422;BME280;6782;55.904;13.396;2022-09-21T12:47:51;68047.94;;;16.32;67.32
13422;BME280;6782;55.904;13.396;2022-09-21T12:50:43;68060.91;;;16.43;65.54
13422;BME280;6782;55.904;13.396;2022-09-21T12:53:34;68075.09;;;16.55;66.70
13422;BME280;6782;55.904;13.396;2022-09-21T12:56:31;68089.84;;;16.67;65.84
13422;BME280;6782;55.904;13.396;2022-09-21T12:59:29;68094.81;;;16.71;64.71
13422;BME280;6782;55.904;13.396;2022-09-21T13:02:25;68091.94;;;16.69;68.00
13422;BME280;6782;55.904;13.396;2022-09-21T13:05:28;68087.03;;;16.65;70.72
13422;BME280;6782;55.904;13.396;2022-09-21T13:08:24;68081.81;;;16.61;71.76
13422;BME280;6782;55.904;13.396;2022-09-21T13:11:12;68076.22;;;16.56;72.02
13422;BME280;6782;55.904;13.396;2022-09-21T13:14:05;68071.25;;;16.52;72.11
13422;BME280;6782;55.904;13.396;2022-09-21T13:16:55;68065.31;;;16.47;73.49
13422;BME280;6782;55.904;13.396;2022-09-21T13:19:55;68058.88;;;16.42;75.20
13422;BME280;6782;55.904;13.396;2022-09-21T13:22:47;68053.03;;;16.37;77.03
13422;BME280;6782;55.904;13.396;2022-09-21T13:25:35;68045.63;;;16.31;77.97
13422;BME280;6782;55.904;13.396;2022-09-21T13:28:39;68038.00;;;16.24;80.19
13422;BME280;6782;55.904;13.396;2022-09-21T13:31:39;68030.78;;;16.18;81.58
13422;BME280;6782;55.904;13.396;2022-09-21T13:34:33;68024.53;;;16.13;81.73
13422;BME280;6782;55.904;13.396;2022-09-21T13:37:26;68019.00;;;16.09;81.63
13422;BME280;6782;55.904;13.396;2022-09-21T13:40:39;68014.22;;;16.05;81.76
13422;BME280;6782;55.904;13.396;2022-09-21T13:43:45;68010.28;;;16.02;79.66
13422;BME280;6782;55.904;13.396;2022-09-21T13:46:55;68005.50;;;15.98;78.87
13422;BME280;6782;55.904;13.396;2022-09-21T13:49:47;68005.19;;;15.98;78.17
13422;BME280;6782;55.904;13.396;2022-09-21T13:52:41;68004.91;;;15.97;75.09
13422;BME280;6782;55.904;13.396;2022-09-21T13:55:32;68006.53;;;15.99;73.75
13422;BME280;6782;55.904;13.396;2022-09-21T13:58:24;68005.00;;;15.98;73.31
13422;BME280;6782;55.904;13.396;2022-09-21T14:01:18;68002.34;;;15.95;73.74
13422;BME280;6782;55.904;13.396;2022-09-21T14:04:17;67997.56;;;15.91;75.22
13422;BME280;6782;55.904;13.396;2022-09-21T14:07:07;67993.81;;;15.88;75.80
13422;BME280;6782;55.904;13.396;2022-09-21T14:09:56;67990.97;;;15.86;77.52
13422;BME280;6782;55.904;13.396;2022-09-21T14:12:45;67989.16;;;15.85;76.43
13422;BME280;6782;55.904;13.396;2022-09-21T14:15:38;67987.34;;;15.84;77.07
13422;BME280;6782;55.904;13.396;2022-09-21T14:18:43;67987.00;;;15.84;76.90
13422;BME280;6782;55.904;13.396;2022-09-21T14:21:31;67984.50;;;15.81;76.44
13422;BME280;6782;55.904;13.396;2022-09-21T14:24:20;67980.31;;;15.78;76.67
13422;BME280;6782;55.904;13.396;2022-09-21T14:27:14;67977.78;;;15.76;77.64
13422;BME280;6782;55.904;13.396;2022-09-21T14:30:13;67976.28;;;15.74;77.91
13422;BME280;6782;55.904;13.396;2022-09-21T14:33:27;67972.97;;;15.72;78.34
13422;BME280;6782;55.904;13.396;2022-09-21T14:36:21;67970.75;;;15.70;79.88
13422;BME280;6782;55.904;13.396;2022-09-21T14:39:15;67968.69;;;15.68;80.52
13422;BME280;6782;55.904;13.396;2022-09-21T14:42:07;67966.78;;;15.66;80.69
13422;BME280;6782;55.904;13.396;2022-09-21T14:44:58;67965.25;;;15.65;80.89
13422;BME280;6782;55.904;13.396;2022-09-21T14:48:02;67965.38;;;15.65;82.02
13422;BME280;6782;55.904;13.396;2022-09-21T14:50:58;67963.84;;;15.64;80.99
13422;BME280;6782;55.904;13.396;2022-09-21T14:54:05;67961.31;;;15.62;83.03
13422;BME280;6782;55.904;13.396;2022-09-21T14:57:02;67957.44;;;15.59;83.39
13422;BME280;6782;55.904;13.396;2022-09-21T15:00:10;67952.34;;;15.55;84.75
13422;BME280;6782;55.904;13.396;2022-09-21T15:03:15;67948.19;;;15.51;85.98
13422;BME280;6782;55.904;13.396;2022-09-21T15:06:18;67943.38;;;15.48;85.41
13422;BME280;6782;55.904;13.396;2022-09-21T15:09:41;67939.91;;;15.45;84.74
13422;BME280;6782;55.904;13.396;2022-09-21T15:12:57;67936.78;;;15.42;84.07